createdAt,value
2024-02-21T00:00:31.091Z,19.73
2024-02-21T00:03:01.078Z,19.47
2024-02-21T00:05:27.969Z,19.43
2024-02-21T00:07:54.564Z,19.13
2024-02-21T00:10:21.130Z,20.60
2024-02-21T00:12:47.612Z,19.57
2024-02-21T00:15:14.019Z,20.17
2024-02-21T00:17:40.762Z,20.13
2024-02-21T00:20:08.660Z,21.03
2024-02-21T00:22:35.302Z,20.77
2024-02-21T00:25:01.808Z,20.57
2024-02-21T00:27:28.727Z,21.13
2024-02-21T00:29:55.150Z,22.17
2024-02-21T00:32:21.858Z,20.83
2024-02-21T00:34:48.309Z,22.27
2024-02-21T00:37:14.839Z,21.67
2024-02-21T00:39:41.375Z,19.70
2024-02-21T00:42:08.590Z,22.07
2024-02-21T00:44:35.850Z,21.87
2024-02-21T00:47:02.353Z,22.47
2024-02-21T00:49:28.955Z,20.20
2024-02-21T00:51:55.361Z,21.60
2024-02-21T00:54:21.781Z,20.30
2024-02-21T00:56:48.208Z,21.60
2024-02-21T00:59:14.679Z,20.97
2024-02-21T01:01:43.960Z,21.53
2024-02-21T01:04:11.551Z,22.03
2024-02-21T01:06:38.088Z,21.97
2024-02-21T01:09:04.968Z,21.37
2024-02-21T01:11:31.472Z,21.30
2024-02-21T01:13:57.963Z,22.30
2024-02-21T01:16:24.502Z,21.33
2024-02-21T01:18:51.363Z,21.60
2024-02-21T01:21:17.843Z,22.30
2024-02-21T01:23:44.317Z,22.00
2024-02-21T01:26:14.187Z,22.70
2024-02-21T01:28:41.853Z,21.10
2024-02-21T01:31:08.934Z,24.27
2024-02-21T01:33:40.022Z,22.10
2024-02-21T01:36:10.015Z,21.63
2024-02-21T01:38:36.649Z,21.60
2024-02-21T01:41:03.569Z,22.33
2024-02-21T01:43:30.074Z,21.57
2024-02-21T01:45:58.122Z,22.30
2024-02-21T01:48:24.946Z,22.27
2024-02-21T01:50:52.925Z,22.57
2024-02-21T01:53:24.900Z,22.30
2024-02-21T01:55:51.352Z,20.33
2024-02-21T01:58:19.648Z,21.87
2024-02-21T02:00:48.993Z,21.47
2024-02-21T02:03:17.958Z,21.53
2024-02-21T02:05:45.628Z,21.43
2024-02-21T02:08:12.251Z,21.23
2024-02-21T02:10:40.416Z,20.47
2024-02-21T02:13:06.927Z,21.00
2024-02-21T02:15:43.149Z,21.37
2024-02-21T02:18:10.746Z,19.97
2024-02-21T02:20:37.717Z,21.07
2024-02-21T02:23:21.488Z,22.10
2024-02-21T02:25:53.065Z,21.97
2024-02-21T02:28:21.615Z,21.97
2024-02-21T02:30:48.676Z,21.43
2024-02-21T02:33:15.504Z,21.87
2024-02-21T02:35:42.164Z,20.77
2024-02-21T02:38:08.865Z,21.03
2024-02-21T02:40:35.904Z,21.33
2024-02-21T02:43:02.822Z,20.57
2024-02-21T02:45:29.477Z,20.93
2024-02-21T02:47:57.937Z,21.20
2024-02-21T02:50:25.641Z,20.13
2024-02-21T02:52:52.166Z,20.33
2024-02-21T02:55:19.018Z,21.07
2024-02-21T02:57:46.070Z,20.23
2024-02-21T03:00:13.977Z,20.13
2024-02-21T03:02:41.488Z,20.50
2024-02-21T03:05:16.880Z,19.03
2024-02-21T03:07:44.733Z,20.37
2024-02-21T03:10:12.297Z,19.30
2024-02-21T03:12:39.411Z,19.40
2024-02-21T03:15:06.839Z,19.53
2024-02-21T03:17:35.502Z,19.13
2024-02-21T03:20:11.034Z,18.80
2024-02-21T03:22:38.776Z,19.37
2024-02-21T03:25:06.790Z,19.63
2024-02-21T03:27:33.217Z,19.93
2024-02-21T03:29:59.679Z,20.37
2024-02-21T03:32:26.144Z,20.80
2024-02-21T03:34:52.636Z,21.27
2024-02-21T03:37:19.657Z,21.00
2024-02-21T03:39:46.491Z,20.53
2024-02-21T03:42:13.066Z,20.63
2024-02-21T03:44:40.178Z,21.03
2024-02-21T03:47:06.780Z,20.30
2024-02-21T03:49:33.263Z,21.07
2024-02-21T03:51:59.764Z,20.07
2024-02-21T03:54:26.154Z,20.43
2024-02-21T03:56:52.545Z,20.17
2024-02-21T03:59:19.008Z,20.03
2024-02-21T04:01:45.710Z,20.60
2024-02-21T04:04:12.414Z,20.73
2024-02-21T04:06:47.835Z,20.07
2024-02-21T04:09:14.309Z,19.70
2024-02-21T04:11:40.862Z,21.53
2024-02-21T04:14:07.405Z,21.73
2024-02-21T04:16:35.209Z,20.40
2024-02-21T04:19:03.104Z,21.13
2024-02-21T04:21:29.668Z,21.37
2024-02-21T04:23:56.496Z,21.03
2024-02-21T04:26:22.921Z,21.17
2024-02-21T04:28:49.369Z,20.63
2024-02-21T04:31:16.288Z,22.30
2024-02-21T04:33:43.080Z,21.67
2024-02-21T04:36:10.390Z,22.57
2024-02-21T04:38:36.884Z,20.73
2024-02-21T04:41:04.017Z,23.00
2024-02-21T04:43:30.609Z,22.43
2024-02-21T04:45:57.054Z,23.53
2024-02-21T04:48:23.502Z,22.33
2024-02-21T04:50:50.121Z,23.63
2024-02-21T04:53:17.111Z,24.27
2024-02-21T04:55:43.674Z,24.23
2024-02-21T04:58:10.332Z,23.50
2024-02-21T05:00:36.780Z,24.23
2024-02-21T05:03:03.848Z,23.87
2024-02-21T05:05:30.643Z,23.27
2024-02-21T05:07:57.269Z,23.73
2024-02-21T05:10:23.835Z,23.20
2024-02-21T05:12:50.842Z,24.07
2024-02-21T05:15:17.295Z,22.13
2024-02-21T05:17:44.662Z,23.70
2024-02-21T05:20:11.838Z,22.27
2024-02-21T05:22:38.577Z,22.73
2024-02-21T05:25:05.424Z,22.20
2024-02-21T05:27:31.886Z,21.97
2024-02-21T05:29:59.424Z,22.67
2024-02-21T05:32:27.271Z,23.17
2024-02-21T05:34:53.755Z,22.60
2024-02-21T05:37:20.197Z,23.17
2024-02-21T05:39:46.758Z,22.57
2024-02-21T05:42:13.336Z,23.27
2024-02-21T05:44:39.903Z,25.07
2024-02-21T05:47:10.949Z,23.37
2024-02-21T05:49:38.257Z,22.30
2024-02-21T05:52:07.014Z,22.53
2024-02-21T05:54:33.810Z,23.60
2024-02-21T05:57:00.462Z,23.57
2024-02-21T05:59:27.007Z,23.37
2024-02-21T06:01:59.899Z,24.20
2024-02-21T06:04:26.534Z,23.80
2024-02-21T06:06:53.040Z,23.53
2024-02-21T06:09:19.533Z,23.50
2024-02-21T06:11:47.474Z,22.43
2024-02-21T06:14:14.299Z,23.10
2024-02-21T06:16:41.064Z,22.27
2024-02-21T06:19:10.127Z,23.03
2024-02-21T06:21:37.823Z,21.93
2024-02-21T06:24:04.954Z,21.90
2024-02-21T06:26:31.401Z,21.47
2024-02-21T06:28:58.447Z,21.63
2024-02-21T06:31:25.101Z,22.57
2024-02-21T06:33:51.744Z,21.73
2024-02-21T06:36:18.274Z,22.97
2024-02-21T06:38:44.946Z,21.67
2024-02-21T06:41:19.698Z,21.93
2024-02-21T06:43:50.159Z,22.83
2024-02-21T06:46:27.382Z,22.60
2024-02-21T06:48:54.521Z,21.57
2024-02-21T06:51:21.123Z,23.40
2024-02-21T06:53:47.620Z,22.37
2024-02-21T06:56:14.439Z,22.33
2024-02-21T06:58:41.509Z,22.47
2024-02-21T07:01:08.867Z,22.53
2024-02-21T07:03:35.456Z,20.93
2024-02-21T07:06:02.454Z,20.83
2024-02-21T07:08:29.107Z,21.17
2024-02-21T07:10:55.722Z,21.67
2024-02-21T07:13:23.749Z,22.00
2024-02-21T07:15:50.349Z,21.17
2024-02-21T07:18:17.323Z,21.53
2024-02-21T07:20:43.802Z,20.00
2024-02-21T07:23:10.531Z,21.37
2024-02-21T07:25:37.074Z,21.50
2024-02-21T07:28:04.111Z,22.00
2024-02-21T07:30:30.598Z,20.47
2024-02-21T07:32:57.052Z,20.60
2024-02-21T07:35:23.705Z,19.87
2024-02-21T07:37:50.361Z,19.80
2024-02-21T07:40:17.783Z,20.10
2024-02-21T07:42:46.937Z,20.93
2024-02-21T07:45:15.321Z,19.60
2024-02-21T07:47:41.927Z,20.20
2024-02-21T07:50:09.181Z,20.60
2024-02-21T07:52:35.880Z,19.30
2024-02-21T07:55:02.390Z,21.07
2024-02-21T07:57:29.058Z,21.10
2024-02-21T07:59:55.541Z,20.60
2024-02-21T08:02:22.011Z,19.93
2024-02-21T08:04:48.511Z,20.70
2024-02-21T08:07:15.086Z,18.80
2024-02-21T08:09:41.879Z,19.77
2024-02-21T08:12:08.714Z,20.40
2024-02-21T08:14:35.166Z,19.43
2024-02-21T08:17:02.818Z,19.97
2024-02-21T08:19:29.406Z,20.80
2024-02-21T08:21:55.904Z,20.53
2024-02-21T08:24:24.000Z,20.20
2024-02-21T08:26:50.506Z,19.20
2024-02-21T08:29:16.954Z,20.73
2024-02-21T08:31:43.543Z,19.67
2024-02-21T08:34:10.184Z,19.37
2024-02-21T08:36:37.246Z,18.73
2024-02-21T08:39:05.665Z,18.83
2024-02-21T08:41:46.734Z,18.33
2024-02-21T08:44:18.805Z,16.97
2024-02-21T08:46:45.448Z,15.93
2024-02-21T08:49:12.237Z,15.67
2024-02-21T08:51:39.195Z,15.20
2024-02-21T08:54:05.831Z,14.80
2024-02-21T08:56:32.484Z,13.60
2024-02-21T08:58:59.172Z,13.87
2024-02-21T09:01:25.770Z,14.20
2024-02-21T09:03:54.936Z,13.07
2024-02-21T09:06:21.635Z,13.53
2024-02-21T09:08:48.201Z,12.37
2024-02-21T09:11:14.980Z,11.30
2024-02-21T09:13:41.802Z,12.20
2024-02-21T09:16:08.283Z,11.33
2024-02-21T09:18:34.760Z,10.57
2024-02-21T09:21:04.479Z,10.90
2024-02-21T09:23:32.556Z,9.90
2024-02-21T09:26:03.299Z,9.80
2024-02-21T09:28:29.921Z,10.37
2024-02-21T09:30:56.399Z,10.20
2024-02-21T09:33:30.577Z,10.47
2024-02-21T09:35:59.672Z,9.23
2024-02-21T09:38:26.278Z,9.03
2024-02-21T09:41:01.241Z,9.37
2024-02-21T09:43:28.845Z,8.83
2024-02-21T09:45:57.731Z,9.90
2024-02-21T09:48:42.068Z,10.00
2024-02-21T09:51:11.691Z,8.70
2024-02-21T09:53:41.740Z,8.60
2024-02-21T09:56:10.280Z,8.53
2024-02-21T09:58:38.581Z,8.57
2024-02-21T10:01:17.093Z,8.40
2024-02-21T10:03:52.278Z,7.73
2024-02-21T10:06:18.836Z,7.57
2024-02-21T10:08:53.133Z,7.70
2024-02-21T10:11:26.556Z,7.83
2024-02-21T10:14:05.356Z,7.50
2024-02-21T10:16:31.924Z,7.37
2024-02-21T10:18:58.436Z,7.63
2024-02-21T10:21:24.892Z,7.87
2024-02-21T10:23:52.000Z,7.73
2024-02-21T10:26:21.897Z,7.73
2024-02-21T10:28:49.794Z,7.47
2024-02-21T10:31:27.665Z,7.13
2024-02-21T10:34:04.932Z,7.60
2024-02-21T10:36:31.927Z,7.13
2024-02-21T10:38:58.640Z,6.43
2024-02-21T10:41:25.732Z,6.90
2024-02-21T10:43:55.193Z,6.37
2024-02-21T10:46:23.427Z,6.53
2024-02-21T10:49:08.591Z,6.67
2024-02-21T10:51:38.514Z,6.67
2024-02-21T10:54:23.870Z,5.77
2024-02-21T10:56:52.493Z,5.70
2024-02-21T10:59:19.331Z,5.57
2024-02-21T11:01:45.965Z,5.33
2024-02-21T11:04:15.530Z,5.60
2024-02-21T11:06:43.713Z,5.13
2024-02-21T11:09:12.518Z,4.60
2024-02-21T11:11:44.751Z,4.90
2024-02-21T11:14:18.507Z,4.97
2024-02-21T11:16:45.483Z,4.57
2024-02-21T11:19:26.752Z,4.70
2024-02-21T11:21:54.747Z,4.77
2024-02-21T11:24:33.705Z,4.67
2024-02-21T11:27:10.120Z,4.30
2024-02-21T11:29:46.313Z,4.63
2024-02-21T11:32:16.552Z,4.03
2024-02-21T11:34:55.008Z,4.40
2024-02-21T11:37:21.753Z,4.10
2024-02-21T11:39:51.467Z,4.10
2024-02-21T11:42:17.944Z,4.30
2024-02-21T11:44:44.476Z,4.43
2024-02-21T11:47:11.354Z,4.47
2024-02-21T11:49:42.702Z,3.87
2024-02-21T11:52:09.292Z,4.40
2024-02-21T11:54:35.955Z,4.03
2024-02-21T11:57:02.708Z,3.83
2024-02-21T11:59:33.093Z,4.07
2024-02-21T12:02:00.592Z,3.77
2024-02-21T12:04:27.266Z,3.77
2024-02-21T12:06:55.335Z,4.00
2024-02-21T12:09:23.876Z,4.13
2024-02-21T12:12:01.953Z,4.47
2024-02-21T12:14:30.283Z,4.10
2024-02-21T12:16:57.311Z,4.27
2024-02-21T12:19:23.783Z,4.50
2024-02-21T12:21:55.603Z,4.53
2024-02-21T12:24:26.441Z,4.67
2024-02-21T12:26:54.094Z,4.77
2024-02-21T12:29:21.655Z,5.33
2024-02-21T12:31:48.651Z,5.10
2024-02-21T12:34:16.503Z,6.03
2024-02-21T12:36:44.820Z,5.90
2024-02-21T12:39:12.210Z,5.90
2024-02-21T12:41:45.272Z,5.93
2024-02-21T12:44:15.492Z,6.27
2024-02-21T12:46:42.538Z,6.47
2024-02-21T12:49:09.328Z,6.50
2024-02-21T12:51:36.339Z,7.13
2024-02-21T12:54:04.056Z,7.87
2024-02-21T12:56:32.069Z,7.63
2024-02-21T12:58:59.070Z,8.17
2024-02-21T13:01:25.883Z,7.53
2024-02-21T13:03:52.419Z,8.43
2024-02-21T13:06:20.052Z,8.03
2024-02-21T13:08:47.147Z,7.97
2024-02-21T13:11:14.315Z,7.70
2024-02-21T13:13:41.121Z,7.83
2024-02-21T13:16:08.246Z,8.33
2024-02-21T13:18:39.006Z,9.10
2024-02-21T13:21:08.559Z,8.97
2024-02-21T13:23:35.027Z,8.87
2024-02-21T13:26:01.659Z,8.63
2024-02-21T13:28:28.767Z,8.90
2024-02-21T13:30:55.283Z,7.90
2024-02-21T13:33:21.873Z,7.10
2024-02-21T13:35:48.359Z,8.23
2024-02-21T13:38:15.445Z,6.90
2024-02-21T13:40:43.543Z,7.47
2024-02-21T13:43:11.807Z,6.77
2024-02-21T13:45:38.841Z,7.17
2024-02-21T13:48:07.501Z,8.37
2024-02-21T13:50:41.102Z,8.60
2024-02-21T13:53:07.564Z,6.93
2024-02-21T13:55:34.110Z,5.77
2024-02-21T13:58:00.768Z,6.40
2024-02-21T14:00:28.308Z,5.50
2024-02-21T14:02:55.580Z,5.27
2024-02-21T14:05:22.225Z,4.83
2024-02-21T14:07:48.884Z,6.43
2024-02-21T14:10:15.488Z,4.60
2024-02-21T14:12:42.149Z,4.30
2024-02-21T14:15:10.133Z,4.00
2024-02-21T14:17:36.653Z,3.63
2024-02-21T14:20:05.989Z,3.93
2024-02-21T14:22:32.498Z,4.20
2024-02-21T14:24:59.215Z,5.73
2024-02-21T14:27:25.668Z,8.70
2024-02-21T14:29:52.111Z,5.10
2024-02-21T14:32:18.642Z,7.33
2024-02-21T14:34:45.331Z,7.20
2024-02-21T14:37:11.867Z,4.70
2024-02-21T14:39:38.338Z,2.83
2024-02-21T14:42:05.004Z,4.10
2024-02-21T14:44:31.433Z,3.50
2024-02-21T14:46:57.929Z,3.37
2024-02-21T14:49:26.301Z,3.40
2024-02-21T14:51:53.437Z,3.23
2024-02-21T14:54:20.567Z,3.80
2024-02-21T14:56:47.810Z,6.77
2024-02-21T14:59:21.325Z,8.80
2024-02-21T15:01:52.556Z,5.43
2024-02-21T15:04:19.103Z,4.80
2024-02-21T15:06:46.377Z,5.10
2024-02-21T15:09:16.045Z,4.50
2024-02-21T15:11:44.164Z,4.20
2024-02-21T15:14:12.074Z,3.90
2024-02-21T15:16:38.859Z,6.10
2024-02-21T15:19:05.528Z,5.37
2024-02-21T15:21:32.013Z,5.57
2024-02-21T15:23:59.444Z,4.90
2024-02-21T15:26:25.886Z,6.50
2024-02-21T15:28:52.468Z,4.90
2024-02-21T15:31:25.485Z,3.53
2024-02-21T15:33:53.544Z,3.60
2024-02-21T15:36:20.455Z,4.83
2024-02-21T15:38:47.503Z,3.60
2024-02-21T15:41:15.410Z,3.87
2024-02-21T15:43:43.784Z,4.20
2024-02-21T15:46:13.456Z,3.97
2024-02-21T15:48:40.124Z,4.10
2024-02-21T15:51:07.492Z,4.90
2024-02-21T15:53:34.029Z,7.77
2024-02-21T15:56:00.630Z,4.23
2024-02-21T15:58:28.813Z,3.50
2024-02-21T16:00:55.393Z,4.60
2024-02-21T16:03:22.837Z,4.67
2024-02-21T16:05:50.021Z,4.40
2024-02-21T16:08:19.380Z,4.60
2024-02-21T16:10:46.087Z,4.57
2024-02-21T16:13:12.698Z,4.43
2024-02-21T16:15:39.359Z,4.77
2024-02-21T16:18:06.576Z,4.43
2024-02-21T16:20:33.292Z,4.93
2024-02-21T16:23:04.167Z,4.20
2024-02-21T16:25:30.871Z,4.37
2024-02-21T16:27:58.891Z,4.10
2024-02-21T16:30:25.500Z,4.07
2024-02-21T16:32:53.276Z,4.17
2024-02-21T16:35:20.115Z,3.60
2024-02-21T16:37:46.834Z,3.43
2024-02-21T16:40:13.325Z,3.73
2024-02-21T16:42:39.912Z,3.63
2024-02-21T16:45:06.824Z,3.43
2024-02-21T16:47:33.339Z,3.53
2024-02-21T16:49:59.960Z,3.40
2024-02-21T16:52:27.738Z,3.37
2024-02-21T16:54:54.162Z,3.93
2024-02-21T16:57:20.567Z,3.77
2024-02-21T16:59:47.644Z,3.57
2024-02-21T17:02:14.292Z,4.00
2024-02-21T17:04:40.990Z,4.00
2024-02-21T17:07:07.667Z,4.30
2024-02-21T17:09:34.486Z,4.47
2024-02-21T17:12:01.070Z,4.97
2024-02-21T17:14:27.607Z,4.77
2024-02-21T17:16:55.862Z,5.03
2024-02-21T17:19:22.620Z,5.00
2024-02-21T17:21:49.100Z,3.40
2024-02-21T17:24:15.584Z,3.50
2024-02-21T17:26:42.106Z,3.73
2024-02-21T17:29:09.673Z,3.40
2024-02-21T17:31:36.249Z,4.17
2024-02-21T17:34:02.780Z,4.13
2024-02-21T17:36:29.277Z,4.10
2024-02-21T17:38:55.714Z,3.97
2024-02-21T17:41:22.716Z,3.47
2024-02-21T17:43:49.832Z,3.23
2024-02-21T17:46:16.855Z,3.30
2024-02-21T17:48:43.392Z,3.53
2024-02-21T17:51:10.023Z,3.10
2024-02-21T17:53:36.646Z,3.10
2024-02-21T17:56:04.310Z,3.50
2024-02-21T17:58:31.600Z,3.77
2024-02-21T18:01:00.920Z,3.00
2024-02-21T18:03:30.094Z,3.33
2024-02-21T18:06:04.757Z,3.23
2024-02-21T18:08:32.145Z,3.50
2024-02-21T18:10:58.902Z,3.23
2024-02-21T18:13:25.608Z,3.20
2024-02-21T18:15:52.880Z,3.27
2024-02-21T18:18:19.366Z,3.80
2024-02-21T18:20:46.151Z,3.67
2024-02-21T18:23:12.937Z,3.93
2024-02-21T18:25:41.156Z,4.50
2024-02-21T18:28:08.018Z,3.80
2024-02-21T18:30:34.459Z,4.10
2024-02-21T18:33:03.311Z,3.80
2024-02-21T18:35:29.845Z,4.10
2024-02-21T18:37:56.951Z,3.53
2024-02-21T18:40:23.542Z,4.20
2024-02-21T18:42:50.164Z,3.70
2024-02-21T18:45:16.905Z,4.27
2024-02-21T18:47:44.448Z,5.00
2024-02-21T18:50:12.593Z,4.70
2024-02-21T18:52:39.210Z,5.27
2024-02-21T18:55:06.437Z,5.17
2024-02-21T18:57:34.538Z,5.00
2024-02-21T19:00:07.895Z,5.10
2024-02-21T19:02:34.616Z,4.93
2024-02-21T19:05:01.258Z,4.73
2024-02-21T19:07:29.396Z,4.87
2024-02-21T19:09:55.893Z,4.63
2024-02-21T19:12:22.318Z,4.70
2024-02-21T19:14:48.772Z,4.13
2024-02-21T19:17:15.225Z,4.67
2024-02-21T19:19:43.394Z,4.80
2024-02-21T19:22:10.012Z,5.13
2024-02-21T19:24:37.298Z,4.57
2024-02-21T19:27:04.230Z,4.73
2024-02-21T19:29:30.653Z,4.43
2024-02-21T19:31:57.813Z,4.23
2024-02-21T19:34:25.680Z,4.20
2024-02-21T19:36:52.142Z,3.70
2024-02-21T19:39:18.545Z,3.63
2024-02-21T19:41:46.601Z,3.60
2024-02-21T19:44:13.249Z,3.83
2024-02-21T19:46:40.005Z,3.50
2024-02-21T19:49:06.685Z,4.70
2024-02-21T19:51:33.161Z,4.50
2024-02-21T19:54:10.055Z,3.83
2024-02-21T19:56:46.326Z,3.87
2024-02-21T19:59:13.215Z,3.90
2024-02-21T20:01:42.818Z,4.13
2024-02-21T20:04:10.298Z,4.17
2024-02-21T20:06:36.769Z,3.33
2024-02-21T20:09:06.738Z,3.43
2024-02-21T20:11:33.758Z,2.87
2024-02-21T20:14:02.144Z,3.07
2024-02-21T20:16:30.436Z,3.17
2024-02-21T20:18:58.436Z,2.57
2024-02-21T20:21:24.972Z,3.10
2024-02-21T20:23:51.426Z,3.37
2024-02-21T20:26:18.484Z,3.20
2024-02-21T20:28:44.945Z,2.97
2024-02-21T20:31:11.561Z,3.37
2024-02-21T20:33:38.059Z,3.27
2024-02-21T20:36:05.923Z,2.93
2024-02-21T20:38:32.545Z,3.40
2024-02-21T20:40:59.210Z,3.33
2024-02-21T20:43:25.684Z,3.40
2024-02-21T20:45:52.117Z,3.57
2024-02-21T20:48:18.671Z,3.57
2024-02-21T20:50:45.201Z,3.67
2024-02-21T20:53:11.858Z,3.97
2024-02-21T20:55:39.403Z,3.30
2024-02-21T20:58:05.858Z,3.20
2024-02-21T21:00:32.913Z,3.60
2024-02-21T21:03:00.135Z,3.53
2024-02-21T21:05:27.298Z,3.47
2024-02-21T21:07:53.853Z,3.67
2024-02-21T21:10:20.456Z,3.67
2024-02-21T21:12:46.983Z,3.37
2024-02-21T21:15:13.420Z,3.30
2024-02-21T21:17:40.213Z,3.40
2024-02-21T21:20:11.485Z,3.63
2024-02-21T21:22:40.721Z,3.40
2024-02-21T21:25:08.201Z,3.30
2024-02-21T21:27:34.686Z,3.40
2024-02-21T21:30:01.078Z,3.83
2024-02-21T21:32:28.411Z,3.03
2024-02-21T21:34:55.021Z,3.40
2024-02-21T21:37:23.962Z,3.20
2024-02-21T21:39:55.672Z,3.27
2024-02-21T21:42:23.470Z,3.80
2024-02-21T21:44:50.047Z,5.50
2024-02-21T21:47:18.027Z,3.60
2024-02-21T21:49:44.695Z,3.30
2024-02-21T21:52:12.741Z,3.23
2024-02-21T21:54:40.886Z,3.27
2024-02-21T21:57:07.519Z,2.70
2024-02-21T21:59:34.038Z,3.40
2024-02-21T22:02:02.053Z,3.20
2024-02-21T22:04:29.921Z,3.43
2024-02-21T22:06:56.531Z,3.00
2024-02-21T22:09:23.523Z,2.90
2024-02-21T22:11:49.993Z,3.20
2024-02-21T22:14:16.792Z,3.10
2024-02-21T22:16:43.436Z,2.87
2024-02-21T22:19:10.235Z,2.80
2024-02-21T22:21:36.790Z,3.00
2024-02-21T22:24:03.266Z,3.50
2024-02-21T22:26:29.698Z,3.07
2024-02-21T22:28:57.810Z,3.00
2024-02-21T22:31:24.334Z,3.07
2024-02-21T22:33:50.807Z,3.23
2024-02-21T22:36:20.838Z,3.03
2024-02-21T22:38:49.568Z,3.60
2024-02-21T22:41:16.100Z,3.30
2024-02-21T22:43:43.492Z,3.10
2024-02-21T22:46:11.998Z,2.90
2024-02-21T22:48:38.728Z,2.70
2024-02-21T22:51:05.397Z,2.90
2024-02-21T22:53:31.878Z,2.67
2024-02-21T22:55:58.393Z,3.40
2024-02-21T22:58:26.315Z,3.03
2024-02-21T23:00:53.951Z,2.80
2024-02-21T23:03:45.714Z,3.10
2024-02-21T23:06:12.376Z,3.00
2024-02-21T23:08:39.414Z,2.90
2024-02-21T23:11:06.563Z,3.57
2024-02-21T23:13:33.825Z,3.53
2024-02-21T23:16:00.541Z,3.57
2024-02-21T23:18:27.009Z,3.40
2024-02-21T23:20:54.475Z,3.70
2024-02-21T23:23:21.162Z,3.00
2024-02-21T23:25:47.794Z,3.20
2024-02-21T23:28:14.465Z,3.50
2024-02-21T23:30:40.983Z,3.70
2024-02-21T23:33:07.805Z,3.83
2024-02-21T23:35:37.832Z,3.30
2024-02-21T23:38:08.770Z,3.73
2024-02-21T23:40:35.393Z,3.73
2024-02-21T23:43:02.146Z,3.70
2024-02-21T23:45:28.679Z,3.47
2024-02-21T23:47:55.125Z,3.27
2024-02-21T23:50:22.140Z,3.50
2024-02-21T23:52:49.593Z,3.57
2024-02-21T23:55:16.129Z,3.50
2024-02-21T23:57:42.763Z,3.23
